createdAt,value
2022-08-18T00:01:06.243Z,100689.84
2022-08-18T00:03:53.270Z,100690.34
2022-08-18T00:06:20.416Z,100679.09
2022-08-18T00:08:47.187Z,100676.91
2022-08-18T00:11:13.939Z,100673.44
2022-08-18T00:13:41.393Z,100686.50
2022-08-18T00:16:08.055Z,100688.69
2022-08-18T00:18:34.667Z,100684.75
2022-08-18T00:21:02.261Z,100691.34
2022-08-18T00:23:29.977Z,100693.00
2022-08-18T00:25:59.595Z,100694.47
2022-08-18T00:28:26.527Z,100695.31
2022-08-18T00:30:53.834Z,100690.81
2022-08-18T00:33:21.164Z,100680.09
2022-08-18T00:35:47.921Z,100680.97
2022-08-18T00:38:24.971Z,100674.00
2022-08-18T00:40:54.602Z,100697.34
2022-08-18T00:43:45.137Z,100688.75
2022-08-18T00:46:18.294Z,100684.66
2022-08-18T00:48:48.626Z,100687.13
2022-08-18T00:51:29.160Z,100685.13
2022-08-18T00:53:55.939Z,100689.63
2022-08-18T00:56:28.574Z,100687.66
2022-08-18T00:59:02.984Z,100688.00
2022-08-18T01:01:32.925Z,100686.34
2022-08-18T01:04:12.510Z,100679.47
2022-08-18T01:06:44.898Z,100683.59
2022-08-18T01:09:11.996Z,100677.63
2022-08-18T01:11:39.401Z,100683.25
2022-08-18T01:14:09.039Z,100681.94
2022-08-18T01:16:57.349Z,100684.31
2022-08-18T01:19:45.020Z,100678.69
2022-08-18T01:22:21.371Z,100681.16
2022-08-18T01:25:23.556Z,100674.22
2022-08-18T01:27:54.186Z,100685.31
2022-08-18T01:30:28.053Z,100679.50
2022-08-18T01:32:55.359Z,100680.34
2022-08-18T01:35:25.638Z,100676.84
2022-08-18T01:37:54.037Z,100680.94
2022-08-18T01:41:21.928Z,100678.59
2022-08-18T01:43:10.361Z,100678.25
2022-08-18T01:45:37.365Z,100678.13
2022-08-18T01:48:04.933Z,100678.97
2022-08-18T01:50:35.212Z,100680.94
2022-08-18T01:53:05.437Z,100686.59
2022-08-18T01:55:37.045Z,100681.00
2022-08-18T01:58:04.775Z,100685.66
2022-08-18T02:00:32.453Z,100676.19
2022-08-18T02:03:02.603Z,100668.22
2022-08-18T02:05:38.709Z,100672.19
2022-08-18T02:08:07.192Z,100674.84
2022-08-18T02:10:37.921Z,100664.44
2022-08-18T02:13:05.357Z,100674.19
2022-08-18T02:15:34.895Z,100677.69
2022-08-18T02:18:01.787Z,100674.50
2022-08-18T02:20:28.648Z,100675.69
2022-08-18T02:22:55.307Z,100668.75
2022-08-18T02:25:23.053Z,100670.88
2022-08-18T02:27:50.436Z,100664.44
2022-08-18T02:30:18.782Z,100663.78
2022-08-18T02:32:45.525Z,100659.00
2022-08-18T02:35:12.572Z,100662.34
2022-08-18T02:37:42.192Z,100663.47
2022-08-18T02:40:15.103Z,100667.31
2022-08-18T02:42:43.765Z,100663.66
2022-08-18T02:45:11.180Z,100669.09
2022-08-18T02:47:37.789Z,100662.63
2022-08-18T02:50:04.976Z,100667.91
2022-08-18T02:52:34.538Z,100673.41
2022-08-18T02:55:04.561Z,100671.38
2022-08-18T02:57:32.206Z,100676.50
2022-08-18T03:00:00.241Z,100677.03
2022-08-18T03:02:26.950Z,100674.84
2022-08-18T03:04:53.749Z,100675.53
2022-08-18T03:07:20.440Z,100668.91
2022-08-18T03:09:47.087Z,100683.88
2022-08-18T03:12:13.687Z,100716.59
2022-08-18T03:14:40.306Z,100720.19
2022-08-18T03:17:09.022Z,100705.56
2022-08-18T03:19:36.033Z,100690.22
2022-08-18T03:22:03.569Z,100691.78
2022-08-18T03:24:32.319Z,100712.38
2022-08-18T03:27:01.624Z,100721.00
2022-08-18T03:29:32.518Z,100711.91
2022-08-18T03:32:04.038Z,100701.66
2022-08-18T03:34:31.647Z,100711.72
2022-08-18T03:36:58.835Z,100713.38
2022-08-18T03:39:27.961Z,100706.66
2022-08-18T03:41:58.353Z,100703.31
2022-08-18T03:44:32.402Z,100716.03
2022-08-18T03:47:00.970Z,100715.13
2022-08-18T03:49:27.917Z,100709.09
2022-08-18T03:51:55.568Z,100713.09
2022-08-18T03:54:22.979Z,100722.81
2022-08-18T03:56:49.849Z,100726.41
2022-08-18T03:59:22.617Z,100736.34
2022-08-18T04:01:51.591Z,100726.13
2022-08-18T04:04:20.876Z,100714.84
2022-08-18T04:06:54.847Z,100708.91
2022-08-18T04:09:22.926Z,100710.16
2022-08-18T04:11:49.691Z,100701.69
2022-08-18T04:14:19.210Z,100716.63
2022-08-18T04:16:46.934Z,100712.38
2022-08-18T04:19:14.194Z,100709.03
2022-08-18T04:21:53.721Z,100707.50
2022-08-18T04:24:21.206Z,100703.63
2022-08-18T04:26:48.664Z,100713.78
2022-08-18T04:29:17.745Z,100715.88
2022-08-18T04:31:44.687Z,100708.56
2022-08-18T04:34:12.418Z,100719.47
2022-08-18T04:36:40.110Z,100713.91
2022-08-18T04:39:08.951Z,100710.28
2022-08-18T04:41:39.763Z,100706.13
2022-08-18T04:44:08.832Z,100706.06
2022-08-18T04:46:47.797Z,100701.00
2022-08-18T04:49:16.212Z,100697.53
2022-08-18T04:52:34.112Z,100695.13
2022-08-18T04:54:57.039Z,100708.41
2022-08-18T04:57:24.048Z,100700.63
2022-08-18T04:59:52.429Z,100707.97
2022-08-18T05:02:21.100Z,100701.22
2022-08-18T05:04:48.086Z,100700.88
2022-08-18T05:07:22.488Z,100712.66
2022-08-18T05:09:52.408Z,100724.41
2022-08-18T05:12:28.883Z,100717.25
2022-08-18T05:14:58.019Z,100730.31
2022-08-18T05:17:29.968Z,100727.56
2022-08-18T05:19:58.956Z,100736.47
2022-08-18T05:22:30.421Z,100736.00
2022-08-18T05:24:58.277Z,100728.56
2022-08-18T05:27:25.126Z,100723.59
2022-08-18T05:29:51.999Z,100720.31
2022-08-18T05:32:37.248Z,100713.00
2022-08-18T05:35:12.104Z,100719.31
2022-08-18T05:37:48.075Z,100707.88
2022-08-18T05:40:15.515Z,100700.91
2022-08-18T05:42:45.625Z,100703.09
2022-08-18T05:45:16.910Z,100695.81
2022-08-18T05:47:43.683Z,100698.59
2022-08-18T05:50:18.494Z,100708.38
2022-08-18T05:53:13.305Z,100694.28
2022-08-18T05:56:12.698Z,100684.53
2022-08-18T05:58:45.966Z,100667.63
2022-08-18T06:01:18.456Z,100672.09
2022-08-18T06:04:23.716Z,100671.41
2022-08-18T06:06:52.968Z,100669.97
2022-08-18T06:09:36.782Z,100675.41
2022-08-18T06:12:38.205Z,100675.09
2022-08-18T06:15:24.634Z,100670.63
2022-08-18T06:17:59.911Z,100681.06
2022-08-18T06:21:04.939Z,100686.69
2022-08-18T06:24:22.297Z,100696.13
2022-08-18T06:27:10.207Z,100700.94
2022-08-18T06:29:39.678Z,100726.22
2022-08-18T06:32:28.356Z,100716.63
2022-08-18T06:35:11.738Z,100694.78
2022-08-18T06:38:09.083Z,100681.19
2022-08-18T06:40:38.210Z,100671.69
2022-08-18T06:43:10.070Z,100662.06
2022-08-18T06:45:41.895Z,100680.38
2022-08-18T06:48:43.979Z,100666.75
2022-08-18T06:51:15.283Z,100648.03
2022-08-18T06:53:54.317Z,100647.50
2022-08-18T06:56:41.562Z,100646.19
2022-08-18T06:59:26.150Z,100652.16
2022-08-18T07:02:21.771Z,100669.63
2022-08-18T07:05:20.490Z,100685.00
2022-08-18T07:08:12.291Z,100704.97
2022-08-18T07:10:51.926Z,100713.38
2022-08-18T07:13:31.019Z,100726.56
2022-08-18T07:16:34.488Z,100736.25
2022-08-18T07:19:13.012Z,100743.16
2022-08-18T07:21:47.699Z,100737.91
2022-08-18T07:24:27.340Z,100723.53
2022-08-18T07:27:07.956Z,100689.63
2022-08-18T07:29:57.610Z,100667.44
2022-08-18T07:32:30.346Z,100686.16
2022-08-18T07:35:00.684Z,100691.44
2022-08-18T07:37:56.334Z,100697.72
2022-08-18T07:40:38.382Z,100686.78
2022-08-18T07:43:24.033Z,100660.34
2022-08-18T07:45:56.032Z,100654.91
2022-08-18T07:48:40.851Z,100647.13
2022-08-18T07:51:24.097Z,100664.81
2022-08-18T07:54:01.901Z,100667.97
2022-08-18T07:57:06.824Z,100675.59
2022-08-18T07:59:59.688Z,100682.50
2022-08-18T08:02:54.009Z,100698.69
2022-08-18T08:05:56.400Z,100693.97
2022-08-18T08:08:35.768Z,100686.66
2022-08-18T08:11:37.547Z,100682.44
2022-08-18T08:14:04.224Z,100684.50
2022-08-18T08:16:44.495Z,100681.50
2022-08-18T08:19:14.158Z,100672.84
2022-08-18T08:21:52.867Z,100670.06
2022-08-18T08:24:39.622Z,100659.88
2022-08-18T08:27:51.458Z,100672.03
2022-08-18T08:30:21.552Z,100676.00
2022-08-18T08:33:17.565Z,100683.47
2022-08-18T08:36:05.724Z,100681.00
2022-08-18T08:38:47.739Z,100687.06
2022-08-18T08:41:26.649Z,100679.00
2022-08-18T08:44:06.392Z,100680.59
2022-08-18T08:46:47.577Z,100671.97
2022-08-18T08:49:42.631Z,100671.88
2022-08-18T08:52:24.840Z,100671.44
2022-08-18T08:55:03.180Z,100667.94
2022-08-18T08:57:39.211Z,100658.56
2022-08-18T09:00:09.090Z,100662.41
2022-08-18T09:02:58.756Z,100654.41
2022-08-18T09:05:29.871Z,100654.84
2022-08-18T09:08:28.396Z,100657.13
2022-08-18T09:11:12.196Z,100658.22
2022-08-18T09:13:44.597Z,100660.09
2022-08-18T09:16:41.409Z,100647.38
2022-08-18T09:19:45.562Z,100656.13
2022-08-18T09:22:24.629Z,100651.75
2022-08-18T09:24:54.884Z,100648.81
2022-08-18T09:28:11.803Z,100651.25
2022-08-18T09:31:01.664Z,100643.53
2022-08-18T09:34:21.429Z,100646.56
2022-08-18T09:36:58.036Z,100640.66
2022-08-18T09:39:56.636Z,100641.59
2022-08-18T09:42:50.609Z,100630.75
2022-08-18T09:45:34.378Z,100623.63
2022-08-18T09:51:33.023Z,100610.91
2022-08-18T09:54:20.850Z,100627.75
2022-08-18T09:56:54.431Z,100624.19
2022-08-18T09:59:35.168Z,100623.56
2022-08-18T10:02:24.199Z,100622.38
2022-08-18T10:05:20.436Z,100614.72
2022-08-18T10:07:56.188Z,100615.81
2022-08-18T10:14:02.860Z,100619.16
2022-08-18T10:17:21.683Z,100617.75
2022-08-18T10:20:04.718Z,100615.06
2022-08-18T10:22:47.886Z,100605.44
2022-08-18T10:25:46.446Z,100608.94
2022-08-18T10:31:56.164Z,100604.91
2022-08-18T10:34:51.947Z,100602.84
2022-08-18T10:37:32.295Z,100601.19
2022-08-18T10:40:08.166Z,100600.34
2022-08-18T10:42:47.620Z,100588.25
2022-08-18T10:45:28.311Z,100589.69
2022-08-18T10:48:16.749Z,100591.13
2022-08-18T10:51:05.471Z,100587.03
2022-08-18T10:53:59.426Z,100577.75
2022-08-18T10:56:33.755Z,100578.78
2022-08-18T10:59:18.973Z,100573.22
2022-08-18T11:02:30.940Z,100574.22
2022-08-18T11:04:59.958Z,100569.19
2022-08-18T11:07:34.735Z,100575.78
2022-08-18T11:10:29.813Z,100558.09
2022-08-18T11:13:24.472Z,100576.78
2022-08-18T11:16:10.330Z,100571.84
2022-08-18T11:18:43.168Z,100563.97
2022-08-18T11:24:44.698Z,100569.44
2022-08-18T11:27:22.727Z,100576.84
2022-08-18T11:29:51.488Z,100573.50
2022-08-18T11:32:32.773Z,100576.06
2022-08-18T11:35:27.739Z,100578.94
2022-08-18T11:38:01.395Z,100570.19
2022-08-18T11:41:10.716Z,100571.78
2022-08-18T11:43:40.752Z,100570.34
2022-08-18T11:46:28.054Z,100574.72
2022-08-18T11:48:57.253Z,100562.78
2022-08-18T11:51:32.162Z,100573.88
2022-08-18T11:54:12.731Z,100571.13
2022-08-18T11:56:39.495Z,100558.66
2022-08-18T11:59:07.747Z,100562.97
2022-08-18T12:01:42.177Z,100560.63
2022-08-18T12:04:37.603Z,100561.22
2022-08-18T12:07:10.912Z,100559.72
2022-08-18T12:10:19.449Z,100565.00
2022-08-18T12:12:48.603Z,100565.22
2022-08-18T12:15:24.094Z,100572.16
2022-08-18T12:17:54.113Z,100565.31
2022-08-18T12:20:21.865Z,100558.44
2022-08-18T12:22:50.163Z,100560.81
2022-08-18T12:25:25.381Z,100563.75
2022-08-18T12:27:55.114Z,100562.97
2022-08-18T12:30:27.471Z,100555.78
2022-08-18T12:32:56.093Z,100555.25
2022-08-18T12:35:32.784Z,100555.59
2022-08-18T12:40:51.080Z,100539.06
2022-08-18T12:43:18.413Z,100551.81
2022-08-18T12:45:48.624Z,100541.09
2022-08-18T12:48:15.471Z,100531.91
2022-08-18T12:50:54.301Z,100536.09
2022-08-18T12:53:30.709Z,100534.22
2022-08-18T12:56:22.795Z,100537.81
2022-08-18T12:58:52.786Z,100540.28
2022-08-18T13:01:20.260Z,100541.47
2022-08-18T13:04:11.011Z,100547.63
2022-08-18T13:06:45.384Z,100536.44
2022-08-18T13:09:34.882Z,100539.88
2022-08-18T13:12:16.147Z,100540.97
2022-08-18T13:14:43.655Z,100545.03
2022-08-18T13:17:15.273Z,100541.69
2022-08-18T13:19:57.699Z,100532.63
2022-08-18T13:22:32.875Z,100543.00
2022-08-18T13:25:01.801Z,100531.69
2022-08-18T13:27:33.145Z,100537.38
2022-08-18T13:30:16.701Z,100533.78
2022-08-18T13:32:58.917Z,100532.72
2022-08-18T13:35:29.792Z,100534.00
2022-08-18T13:38:06.529Z,100524.09
2022-08-18T13:40:46.980Z,100519.25
2022-08-18T13:43:16.094Z,100527.31
2022-08-18T13:45:46.893Z,100521.13
2022-08-18T13:48:19.467Z,100519.84
2022-08-18T13:50:46.520Z,100512.94
2022-08-18T13:53:16.399Z,100517.59
2022-08-18T13:55:43.483Z,100505.44
2022-08-18T13:58:17.587Z,100507.91
2022-08-18T14:00:52.343Z,100509.09
2022-08-18T14:03:42.408Z,100509.69
2022-08-18T14:06:13.230Z,100506.91
2022-08-18T14:08:40.958Z,100500.94
2022-08-18T14:11:09.078Z,100496.97
2022-08-18T14:13:38.143Z,100495.78
2022-08-18T14:16:10.501Z,100491.00
2022-08-18T14:18:39.100Z,100495.00
2022-08-18T14:21:24.940Z,100495.22
2022-08-18T14:24:14.530Z,100485.16
2022-08-18T14:26:50.196Z,100480.72
2022-08-18T14:29:46.294Z,100482.03
2022-08-18T14:32:06.627Z,100476.41
2022-08-18T14:34:33.410Z,100475.59
2022-08-18T14:37:00.031Z,100487.03
2022-08-18T14:39:28.811Z,100472.19
2022-08-18T14:41:58.571Z,100475.00
2022-08-18T14:44:32.354Z,100473.22
2022-08-18T14:47:02.425Z,100475.75
2022-08-18T14:49:31.548Z,100469.56
2022-08-18T14:52:01.336Z,100468.97
2022-08-18T14:54:30.601Z,100472.72
2022-08-18T14:57:01.701Z,100476.22
2022-08-18T14:59:30.990Z,100465.34
2022-08-18T15:02:06.215Z,100483.09
2022-08-18T15:04:39.273Z,100478.66
2022-08-18T15:07:25.648Z,100474.31
2022-08-18T15:10:14.466Z,100475.47
2022-08-18T15:12:41.990Z,100479.75
2022-08-18T15:15:12.384Z,100468.06
2022-08-18T15:17:44.584Z,100475.53
2022-08-18T15:20:17.356Z,100464.72
2022-08-18T15:23:04.762Z,100453.16
2022-08-18T15:25:47.027Z,100460.19
2022-08-18T15:28:26.227Z,100446.19
2022-08-18T15:33:42.812Z,100454.31
2022-08-18T15:36:10.253Z,100447.81
2022-08-18T15:38:37.201Z,100452.78
2022-08-18T15:41:06.358Z,100456.63
2022-08-18T15:43:39.931Z,100455.22
2022-08-18T15:46:14.056Z,100449.09
2022-08-18T15:48:43.678Z,100461.88
2022-08-18T15:51:11.927Z,100450.59
2022-08-18T15:53:44.872Z,100456.16
2022-08-18T15:56:21.929Z,100457.84
2022-08-18T15:58:52.663Z,100457.28
2022-08-18T16:01:32.410Z,100449.91
2022-08-18T16:04:01.256Z,100461.97
2022-08-18T16:06:32.429Z,100461.53
2022-08-18T16:09:01.090Z,100467.28
2022-08-18T16:11:29.803Z,100470.69
2022-08-18T16:13:58.990Z,100472.38
2022-08-18T16:16:35.781Z,100469.97
2022-08-18T16:19:07.034Z,100463.50
2022-08-18T16:21:40.414Z,100481.47
2022-08-18T16:24:10.627Z,100482.06
2022-08-18T16:26:41.472Z,100483.97
2022-08-18T16:29:08.107Z,100488.28
2022-08-18T16:31:34.751Z,100490.72
2022-08-18T16:34:01.490Z,100490.38
2022-08-18T16:36:28.289Z,100480.91
2022-08-18T16:38:58.048Z,100479.59
2022-08-18T16:41:26.330Z,100480.41
2022-08-18T16:43:52.998Z,100476.56
2022-08-18T16:46:26.480Z,100472.56
2022-08-18T16:48:55.185Z,100470.09
2022-08-18T16:51:25.449Z,100486.75
2022-08-18T16:53:53.375Z,100479.28
2022-08-18T16:56:26.614Z,100482.72
2022-08-18T16:59:12.549Z,100475.28
2022-08-18T17:01:58.887Z,100484.47
2022-08-18T17:04:33.467Z,100487.75
2022-08-18T17:07:04.999Z,100481.97
2022-08-18T17:09:33.730Z,100486.66
2022-08-18T17:12:01.238Z,100477.81
2022-08-18T17:14:30.601Z,100486.25
2022-08-18T17:16:58.621Z,100484.16
2022-08-18T17:19:33.671Z,100491.63
2022-08-18T17:22:02.277Z,100496.94
2022-08-18T17:24:32.021Z,100501.75
2022-08-18T17:27:26.535Z,100502.09
2022-08-18T17:30:03.244Z,100499.81
2022-08-18T17:32:50.185Z,100494.69
2022-08-18T17:35:28.628Z,100498.13
2022-08-18T17:38:57.144Z,100508.50
2022-08-18T17:41:25.425Z,100509.38
2022-08-18T17:43:55.662Z,100506.63
2022-08-18T17:46:29.770Z,100510.69
2022-08-18T17:49:10.054Z,100512.47
2022-08-18T17:51:44.372Z,100514.53
2022-08-18T17:54:26.720Z,100519.06
2022-08-18T17:57:04.324Z,100518.34
2022-08-18T18:00:17.291Z,100519.84
2022-08-18T18:02:45.665Z,100519.16
2022-08-18T18:05:20.738Z,100511.63
2022-08-18T18:07:50.479Z,100518.00
2022-08-18T18:10:23.199Z,100522.50
2022-08-18T18:13:13.333Z,100525.69
2022-08-18T18:15:49.156Z,100515.66
2022-08-18T18:18:24.932Z,100531.31
2022-08-18T18:21:22.265Z,100536.53
2022-08-18T18:24:10.347Z,100525.06
2022-08-18T18:26:44.877Z,100532.91
2022-08-18T18:29:28.802Z,100534.19
2022-08-18T18:32:01.938Z,100528.59
2022-08-18T18:34:39.891Z,100529.88
2022-08-18T18:37:28.965Z,100527.03
2022-08-18T18:39:58.983Z,100526.78
2022-08-18T18:42:29.645Z,100529.66
2022-08-18T18:45:02.449Z,100525.34
2022-08-18T18:47:50.078Z,100525.09
2022-08-18T18:50:52.886Z,100524.44
2022-08-18T18:53:32.794Z,100518.06
2022-08-18T18:56:11.430Z,100510.88
2022-08-18T18:58:51.408Z,100520.91
2022-08-18T19:01:32.088Z,100512.22
2022-08-18T19:04:19.223Z,100518.19
2022-08-18T19:07:00.159Z,100522.09
2022-08-18T19:09:38.201Z,100526.97
2022-08-18T19:12:23.408Z,100522.00
2022-08-18T19:15:00.833Z,100524.66
2022-08-18T19:17:35.727Z,100527.50
2022-08-18T19:20:17.388Z,100525.22
2022-08-18T19:22:57.220Z,100529.50
2022-08-18T19:25:29.763Z,100529.50
2022-08-18T19:28:26.954Z,100524.13
2022-08-18T19:30:58.381Z,100520.97
2022-08-18T19:33:43.569Z,100513.75
2022-08-18T19:36:21.948Z,100514.28
2022-08-18T19:39:04.666Z,100509.72
2022-08-18T19:41:47.918Z,100518.75
2022-08-18T19:44:24.406Z,100511.13
2022-08-18T19:46:54.598Z,100528.31
2022-08-18T19:49:36.480Z,100518.84
2022-08-18T19:52:47.910Z,100507.75
2022-08-18T19:55:46.205Z,100517.00
2022-08-18T19:58:22.741Z,100513.03
2022-08-18T20:00:57.182Z,100519.44
2022-08-18T20:03:52.516Z,100518.66
2022-08-18T20:06:40.647Z,100518.41
2022-08-18T20:09:32.723Z,100518.41
2022-08-18T20:12:14.227Z,100520.38
2022-08-18T20:14:49.001Z,100519.06
2022-08-18T20:17:24.610Z,100520.72
2022-08-18T20:20:15.425Z,100512.81
2022-08-18T20:22:44.518Z,100513.78
2022-08-18T20:25:19.992Z,100521.50
2022-08-18T20:28:12.720Z,100519.47
2022-08-18T20:30:52.715Z,100517.78
2022-08-18T20:33:25.818Z,100517.09
2022-08-18T20:36:08.125Z,100528.38
2022-08-18T20:38:35.313Z,100522.59
2022-08-18T20:41:27.592Z,100521.69
2022-08-18T20:43:58.666Z,100527.66
2022-08-18T20:46:44.656Z,100526.47
2022-08-18T20:49:45.794Z,100515.34
2022-08-18T20:52:37.819Z,100518.47
2022-08-18T20:55:30.663Z,100516.00
2022-08-18T20:58:08.264Z,100527.47
2022-08-18T21:00:40.482Z,100522.03
2022-08-18T21:03:13.060Z,100527.41
2022-08-18T21:05:43.650Z,100533.91
2022-08-18T21:08:16.690Z,100524.38
2022-08-18T21:10:57.882Z,100524.28
2022-08-18T21:13:40.509Z,100535.56
2022-08-18T21:16:13.023Z,100542.47
2022-08-18T21:18:55.247Z,100543.31
2022-08-18T21:21:29.809Z,100542.47
2022-08-18T21:24:02.708Z,100534.69
2022-08-18T21:26:34.439Z,100541.03
2022-08-18T21:29:11.209Z,100534.06
2022-08-18T21:31:49.942Z,100528.75
2022-08-18T21:34:29.411Z,100530.56
2022-08-18T21:37:08.580Z,100532.16
2022-08-18T21:39:47.989Z,100531.06
2022-08-18T21:42:21.010Z,100529.16
2022-08-18T21:44:51.532Z,100523.22
2022-08-18T21:47:20.733Z,100521.38
2022-08-18T21:50:11.650Z,100530.63
2022-08-18T21:52:51.058Z,100516.25
2022-08-18T21:55:35.651Z,100515.22
2022-08-18T21:58:16.703Z,100525.94
2022-08-18T22:01:07.964Z,100527.31
2022-08-18T22:03:36.443Z,100533.00
2022-08-18T22:06:33.593Z,100537.53
2022-08-18T22:09:28.408Z,100534.59
2022-08-18T22:12:51.392Z,100535.13
2022-08-18T22:15:28.249Z,100530.09
2022-08-18T22:18:01.008Z,100522.31
2022-08-18T22:20:45.196Z,100516.72
2022-08-18T22:23:30.843Z,100511.84
2022-08-18T22:26:12.495Z,100497.53
2022-08-18T22:29:20.994Z,100508.47
2022-08-18T22:31:51.240Z,100509.59
2022-08-18T22:34:27.911Z,100515.06
2022-08-18T22:37:09.494Z,100514.91
2022-08-18T22:39:49.769Z,100515.97
2022-08-18T22:42:20.802Z,100510.66
2022-08-18T22:44:49.025Z,100517.28
2022-08-18T22:47:16.302Z,100520.28
2022-08-18T22:49:47.502Z,100504.38
2022-08-18T22:52:19.388Z,100499.50
2022-08-18T22:54:46.437Z,100488.59
2022-08-18T22:57:17.562Z,100503.59
2022-08-18T22:59:49.686Z,100494.44
2022-08-18T23:02:22.149Z,100495.53
2022-08-18T23:04:49.222Z,100507.53
2022-08-18T23:07:16.015Z,100508.09
2022-08-18T23:09:42.726Z,100495.25
2022-08-18T23:12:15.728Z,100495.34
2022-08-18T23:14:46.257Z,100500.13
2022-08-18T23:17:14.139Z,100504.25
2022-08-18T23:19:40.975Z,100503.44
2022-08-18T23:22:09.341Z,100500.19
2022-08-18T23:24:40.355Z,100489.56
2022-08-18T23:27:07.910Z,100495.97
2022-08-18T23:29:36.572Z,100486.97
2022-08-18T23:32:05.796Z,100477.16
2022-08-18T23:34:34.851Z,100482.47
2022-08-18T23:37:03.102Z,100477.91
2022-08-18T23:39:31.800Z,100477.22
2022-08-18T23:41:59.306Z,100490.88
2022-08-18T23:44:28.050Z,100473.75
2022-08-18T23:46:57.921Z,100483.75
2022-08-18T23:49:26.250Z,100481.09
2022-08-18T23:51:56.116Z,100464.66
2022-08-18T23:54:26.940Z,100467.91
2022-08-18T23:56:53.655Z,100464.88
2022-08-18T23:59:22.942Z,100461.75
